Tiempo atmosférico en la estación meteorológica de Lagunas De Somoza, León (1020 m.)



Fecha
DESCASC
Temp. máxima en grados centígrados (hora)
DESCASC
Temp. mínima en grados centígrados (hora)
DESCASC
Temp. media en grados centígrados
DESCASC
Racha de viento máxima en m/sg (hora)
DESCASC
Velocidad máxima media en intervalos de 10 minutos(hora)
DESCASC
Precipitaciones diarias en mm
DESCASC
Precipitaciones de 00:00 a 06:00 en mm
DESCASC
Precipitaciones de 06:00 a 12:00 en mm
DESCASC
Precipitaciones de 12:00 a 18:00 en mm
DESCASC
Precipitaciones de 18:00 a 24:00 en mm
DESCASC
18-11-2019 9.1 (15:40) -0.5 (23:59) 4.3 11.11 (07:40) 7.5 (08:00) 0 0 0 0 0
17-11-2019 9.8 (14:00) 1.4 (03:30) 5.6 17.22 (23:00) 10.56 (17:10) 0.9 0 0.8 0.1 0
16-11-2019 6.7 (14:40) 0.8 (06:00) 3.7 12.78 (00:50) 8.33 (00:40) 0 0 0 0 0
15-11-2019 3.9 (16:10) 1.1 (04:40) 2.5 15 (12:20) 10.83 (12:20) 2.6 0.1 0.5 2 0
14-11-2019 8 (00:10) 1.3 (00:00) 4.6 18.61 (17:00) 11.11 (16:50) 8.9 3 0.1 3.3 2.5
13-11-2019 12.5 (13:50) 7.5 (00:00) 10 15.83 (20:40) 11.39 (20:10) 2.9 2.8 0 0.1 0
12-11-2019 11.2 (23:59) 3.4 (00:00) 7.3 10.28 (04:10) 8.06 (04:00) 6.5 0 0 0.7 5.8
11-11-2019 12.2 (14:00) 3.3 (23:59) 7.7 14.17 (12:50) 10 (13:00) 0 0 0 0 0
10-11-2019 7.1 (23:59) 3.6 (00:00) 5.3 15.28 (11:40) 10.83 (11:30) 0.8 0 0.3 0.5 0
09-11-2019 12.9 (13:00) 4.3 (00:00) 8.6 18.61 (19:10) 12.78 (19:20) 0.9 0 0.3 0 0.6
08-11-2019 7.7 (13:30) 2.4 (00:00) 5 18.61 (13:30) 12.22 (14:00) 0 0 0 0 0
07-11-2019 10.7 (00:00) 1.7 (00:00) 6.2 14.72 (21:30) 9.72 (11:00) 1.9 0.2 0.1 1.4 0.2
06-11-2019 12.9 (15:30) 5.8 (00:00) 9.3 9.72 (23:50) 5.83 (14:30) 0.3 0 0 0 0.3
05-11-2019 10.8 (15:20) 5.5 (00:00) 8.2 17.5 (12:00) 11.67 (11:50) 0.6 0 0.6 0 0
04-11-2019 14.3 (13:10) 5.6 (00:00) 10 19.17 (13:10) 13.61 (13:10) 0 0 0 0 0
03-11-2019 14.6 (16:50) 6 (00:00) 10.3 22.78 (16:50) 15 (14:20) 0.7 0.7 0 0 0
02-11-2019 16.1 (13:00) 11.1 (00:00) 13.6 15.56 (23:20) 10 (23:20) 1.7 0.5 1.2 0 0
01-11-2019 19.6 (14:10) 13.6 (00:00) 16.6 20 (15:00) 9.17 (15:10) 0.9 0 0.9 0 0
31-10-2019 21.1 (13:20) 11.9 (03:20) 16.5 9.17 (11:20) 6.39 (11:20) 0.1 0 0.1 0 0
30-10-2019 15.4 (17:20) 10.6 (00:00) 13 6.67 (23:40) 3.89 (23:59) 0.6 0 0.4 0.2 0
29-10-2019 20 (15:30) 8.6 (00:00) 14.3 5.56 (14:30) 3.33 (12:00) 0.1 0 0.1 0 0
28-10-2019 19.9 (14:30) 7.6 (00:00) 13.7 5.28 (14:00) 2.78 (13:50) 0 0 0 0 0
27-10-2019 15.8 (13:00) 8.2 (00:00) 12 4.44 (01:00) 2.5 (00:40) 0 0 0 0 0
26-10-2019 21 (16:50) 4.8 (00:00) 12.9 6.11 (17:00) 4.17 (17:00) 0 0 0 0 0
25-10-2019 17.3 (17:20) 5.7 (00:00) 11.5 7.22 (15:00) 4.44 (14:20) 0.1 0 0.1 0 0
24-10-2019 16.3 (16:30) 6.8 (00:00) 11.5 10.83 (16:40) 7.5 (17:10) 0 0 0 0 0
23-10-2019 9.2 (09:20) 7 (00:00) 8.1 14.44 (18:50) 10 (18:40) 7.4 0.1 1.3 3.2 2.8
22-10-2019 14.7 (16:00) 4.4 (00:00) 9.5 8.61 (17:40) 4.72 (17:00) 0.2 0 0 0 0.2

Gráficas

Temp. máximas Temp. mínimas Temp. medias Precipitaciones Rachas de viento máximas Velocidades máximas media en intervalos de 10 minutos

Datos horarios

Fecha y hora oficial Temperatura (ºC) Velocidad del viento (km/h) Dirección del viento Racha (km/h) Dirección de racha Precipitación (mm) Presión (hPa) Tendencia (hPa) Humedad (%)
2019-11-20 23:00:00 4.2 -- -- 8 Norte 0 889.9 0.4 94
2019-11-20 22:00:00 4.1 -- -- 9 Norte 0 889.6 0.5 94
2019-11-20 21:00:00 4.4 -- -- 6 Norte 0 889.7 0.7 92
2019-11-20 20:00:00 5 -- -- 16 Norte 0 889.5 0.5 91
2019-11-20 19:00:00 5.6 -- -- 17 Norte 0 889.1 -0.1 90
2019-11-20 18:00:00 6.1 -- -- 18 Norte 0 889 -0.5 84
2019-11-20 17:00:00 7.5 -- -- 21 Norte 0 889 -0.7 81
2019-11-20 16:00:00 8 -- -- 28 Norte 0 889.2 -1.6 77
2019-11-20 15:00:00 7.5 -- -- 24 Norte 0 889.5 -1.7 85
2019-11-20 14:00:00 7.1 -- -- 26 Norte 0 889.7 -1.9 95
2019-11-20 13:00:00 6.2 -- -- 20 Norte 0 890.8 -1 97
2019-11-20 12:00:00 6.3 -- -- 21 Norte 0 891.2 -0.7 99
2019-11-20 11:00:00 5.5 -- -- 13 Norte 0.5 891.6 -0.6 99
2019-11-20 10:00:00 5 -- -- 13 Norte 0.3 891.8 -0.7 99
2019-11-20 09:00:00 4.8 -- -- 15 Norte 0.8 891.9 -0.9 99
2019-11-20 08:00:00 4.8 -- -- 12 Norte 0.1 892.2 -1.1 99
2019-11-20 07:00:00 4.8 -- -- 14 Norte 0 892.5 -1.6 99
2019-11-20 06:00:00 4.8 -- -- 15 Norte 0.1 892.8 -1.7 99
2019-11-20 05:00:00 4.7 -- -- 11 Norte 0 893.3 -1.9 98
2019-11-20 04:00:00 4.4 -- -- 5 Norte 0 894.1 -1.7 98
2019-11-20 03:00:00 4.2 -- -- 4 Norte 0 894.5 -1.9 97
2019-11-20 02:00:00 4.1 -- -- 7 Norte 0.1 895.2 -1.8 96
2019-11-20 01:00:00 4 -- -- 8 Norte 0.1 895.8 -1.4 95
2019-11-20 00:00:00 4.2 -- -- 8 Norte 0.1 896.4 -0.9 92
2019-11-19 23:00:00 4.5 -- -- 5 Norte 0.4 897 -0.5 87
2019-11-19 22:00:00 4.7 -- -- 4 Norte 0 897.2 -0.3 84
2019-11-19 21:00:00 4.7 -- -- 3 Norte 0 897.3 -0.1 83
2019-11-19 20:00:00 4.8 -- -- 6 Norte 0 897.5 0 81
2019-11-19 19:00:00 4.9 -- -- 10 Norte 0 897.5 -0.2 78
2019-11-19 18:00:00 5.3 -- -- 10 Norte 0 897.4 -0.7 75
2019-11-19 17:00:00 6.2 -- -- 9 Norte 0 897.5 -1.1 72
2019-11-19 16:00:00 6.3 -- -- 11 Norte 0 897.7 -1.4 72
2019-11-19 15:00:00 6.5 -- -- 9 Norte 0 898.1 -1.5 72
2019-11-19 14:00:00 6.3 -- -- 11 Norte 0 898.6 -1.4 75
2019-11-19 13:00:00 5.8 -- -- 8 Norte 0 899.1 -1.2 76
2019-11-19 12:00:00 5.2 -- -- 10 Norte 0 899.6 -0.8 83
2019-11-19 11:00:00 3.5 -- -- -- -- 0 900 -0.1 90
2019-11-19 10:00:00 1.6 -- -- -- -- 0.1 900.3 0.2 97
2019-11-19 09:00:00 -1.5 -- -- 6 Norte 0 900.4 0.2 97
2019-11-19 08:00:00 -2.3 -- -- 6 Norte 0 900.1 -0.3 97
2019-11-19 07:00:00 -2 -- -- 5 Norte 0 900.1 -0.7 97
2019-11-19 06:00:00 -0.8 -- -- 10 Norte 0 900.2 -0.7 97
2019-11-19 05:00:00 0 -- -- 10 Norte 0 900.4 -0.8 97
2019-11-19 04:00:00 -1.4 -- -- 5 Norte 0 900.8 -1.1 96
2019-11-19 03:00:00 -1.1 -- -- 5 Norte 0 900.9 -1.1 96
2019-11-19 02:00:00 -1.2 -- -- 6 Norte 0 901.2 -0.8 94
2019-11-19 01:00:00 -0.9 -- -- 8 Norte 0 901.9 -0.5 92
2019-11-19 00:00:00 -0.4 -- -- 9 Norte 0 902 -0.2 91
2019-11-18 23:00:00 -0.3 -- -- 6 Norte 0 902 0.2 89
2019-11-18 22:00:00 0.4 -- -- 7 Norte 0 902.4 1 84
2019-11-18 21:00:00 1.8 -- -- 8 Norte 0 902.2 0.9 80
2019-11-18 20:00:00 2.9 -- -- 15 Norte 0 901.8 0.9 79
2019-11-18 19:00:00 3.7 -- -- 9 Norte 0 901.4 0.5 73
2019-11-18 18:00:00 6.1 -- -- 18 Norte 0 901.3 0.6 63
2019-11-18 17:00:00 8.3 -- -- 24 Norte 0 900.9 0.6 57
2019-11-18 16:00:00 8.7 -- -- 31 Norte 0 900.9 0.7 55
2019-11-18 15:00:00 8.4 -- -- 31 Norte 0 900.7 0 59
2019-11-18 14:00:00 8.4 -- -- 35 Norte 0 900.3 -0.2 58
2019-11-18 13:00:00 8.1 -- -- 33 Norte 0 900.2 0.2 55
2019-11-18 12:00:00 7.4 -- -- 38 Norte 0 900.7 1.6 59
2019-11-18 11:00:00 6.4 -- -- 35 Norte 0 900.5 2.3 64
2019-11-18 10:00:00 5.6 -- -- 31 Norte 0 900 1.8 71
2019-11-18 09:00:00 4.4 -- -- 37 Norte 0 899.1 1.4 75
2019-11-18 08:00:00 3.7 -- -- 40 Norte 0 898.2 0.9 79
2019-11-18 07:00:00 3.5 -- -- 26 Norte 0 898.2 1 83
2019-11-18 06:00:00 2.7 -- -- 24 Norte 0 897.7 1.1 85
2019-11-18 05:00:00 3 -- -- 22 Norte 0 897.3 0.9 84
2019-11-18 04:00:00 2.6 -- -- 29 Norte 0 897.2 0.8 85
2019-11-18 03:00:00 3.6 -- -- 30 Norte 0 896.6 0.6 82
2019-11-18 02:00:00 3.3 -- -- 30 Norte 0 896.4 0.6 84
2019-11-18 01:00:00 4.2 -- -- 31 Norte 0 896.4 1 79
2019-11-18 00:00:00 4.2 -- -- 34 Norte 0 896 1.5 81
2019-11-17 23:00:00 4.4 -- -- 62 Norte 0 895.8 0.8 82
2019-11-17 22:00:00 4.5 -- -- 50 Norte 0 895.4 1.1 82
2019-11-17 21:00:00 4.8 -- -- 53 Norte 0 894.5 1.2 78
2019-11-17 20:00:00 5.2 -- -- 20 Norte 0 895 1.1 75
2019-11-17 19:00:00 5 -- -- 51 Norte 0 894.3 0.1 75
2019-11-17 18:00:00 5 -- -- 53 Norte 0.1 893.3 -0.9 72
2019-11-17 17:00:00 6 -- -- 54 Norte 0 893.9 -0.1 73
2019-11-17 16:00:00 7.2 -- -- 50 Norte 0 894.2 -0.3 72
2019-11-17 15:00:00 6.9 -- -- 48 Norte 0 894.2 -0.6 75
2019-11-17 14:00:00 9.6 -- -- 40 Norte 0 894 -1 67
2019-11-17 13:00:00 8 -- -- 42 Norte 0 894.5 -0.4 78
2019-11-17 12:00:00 9.3 -- -- 31 Norte 0 894.8 -0.3 75
2019-11-17 11:00:00 9 -- -- 29 Norte 0 895 -0.1 80
2019-11-17 10:00:00 7.3 -- -- 31 Norte 0.2 894.9 -0.4 89
2019-11-17 09:00:00 3.9 -- -- 8 Norte 0.5 895.1 -0.2 96
2019-11-17 08:00:00 3.6 -- -- 15 Norte 0.1 895.1 -0.8 95
2019-11-17 07:00:00 4.2 -- -- 15 Norte 0 895.3 -1.5 94
2019-11-17 06:00:00 3.9 -- -- 12 Norte 0 895.3 -1.7 94
2019-11-17 05:00:00 3.3 -- -- 10 Norte 0 895.9 -1.4 94
2019-11-17 04:00:00 2.2 -- -- 13 Norte 0 896.8 -1.3 93
2019-11-17 03:00:00 2.1 -- -- 12 Norte 0 897 -0.9 88
2019-11-17 02:00:00 4.7 -- -- 13 Norte 0 897.3 -1.2 86
2019-11-17 01:00:00 4.1 -- -- 12 Norte 0 898.1 -0.6 85
2019-11-17 00:00:00 3.5 -- -- 18 Norte 0 897.9 -1 85
2019-11-16 23:00:00 3.1 -- -- 10 Norte 0 898.5 -0.3 83
2019-11-16 22:00:00 3.9 -- -- 17 Norte 0 898.7 -0.1 78
2019-11-16 21:00:00 4 -- -- 12 Norte 0 898.9 0.1 75
2019-11-16 20:00:00 4.1 -- -- 12 Norte 0 898.8 0.3 71
2019-11-16 19:00:00 4.2 -- -- 18 Norte 0 898.8 1.2 69
2019-11-16 18:00:00 3.9 -- -- 31 Norte 0 898.8 1.2 68
2019-11-16 17:00:00 4.2 -- -- 36 Norte 0 898.5 1.2 75
2019-11-16 16:00:00 5 -- -- 42 Norte 0 897.6 -0.1 65
2019-11-16 15:00:00 6.1 -- -- 35 Norte 0 897.6 -0.8 65
2019-11-16 14:00:00 5.4 -- -- 32 Norte 0 897.3 -0.4 65
2019-11-16 13:00:00 4.8 -- -- 35 Norte 0 897.7 0.5 68
2019-11-16 12:00:00 4.3 -- -- 37 Norte 0 898.4 1.8 70
2019-11-16 11:00:00 3.7 -- -- 32 Norte 0 897.7 1.4 73
2019-11-16 10:00:00 3.2 -- -- 31 Norte 0 897.2 1.4 80
2019-11-16 09:00:00 2.3 -- -- 31 Norte 0 896.6 1.3 82
2019-11-16 08:00:00 2 -- -- 27 Norte 0 896.3 1 79
2019-11-16 07:00:00 1.4 -- -- 29 Norte 0 895.8 0.9 80
2019-11-16 06:00:00 1.3 -- -- 22 Norte 0 895.3 0.9 81
2019-11-16 05:00:00 1.2 -- -- 27 Norte 0 895.3 1.4 81
2019-11-16 04:00:00 1.4 -- -- 28 Norte 0 894.9 1.5 82
2019-11-16 03:00:00 1.8 -- -- 37 Norte 0 894.4 1.2 80
2019-11-16 02:00:00 2 -- -- 42 Norte 0 893.9 1.1 81
2019-11-16 01:00:00 1.7 -- -- 46 Norte 0 893.4 0.8 80
2019-11-16 00:00:00 2.4 -- -- 41 Norte 0 893.2 1.5 78
2019-11-15 23:00:00 1.8 -- -- 31 Norte 0 892.8 1.8 79
2019-11-15 22:00:00 1.9 -- -- 35 Norte 0 892.6 1.9 81
2019-11-15 21:00:00 2 -- -- 41 Norte 0 891.7 1.6 82
2019-11-15 20:00:00 2.2 -- -- 37 Norte 0 891 1.5 83
2019-11-15 19:00:00 2 -- -- 39 Norte 0 890.7 1.5 87
2019-11-15 18:00:00 2.8 -- -- 44 Norte 0 890.1 1.1 80
2019-11-15 17:00:00 3.4 -- -- 42 Norte 0 889.5 0.4 76
2019-11-15 16:00:00 3.8 -- -- 50 Norte 0 889.2 0.1 75
2019-11-15 15:00:00 2.5 -- -- 51 Norte 0 889 -0.3 81
2019-11-15 14:00:00 3.3 -- -- 45 Norte 0.7 889.1 0.1 80
2019-11-15 13:00:00 2.8 -- -- 54 Norte 1.3 889.1 0.2 80
2019-11-15 12:00:00 2.6 -- -- 53 Norte 0.4 889.3 0.6 78
2019-11-15 11:00:00 2.1 -- -- 51 Norte 0.1 889 0.5 80
2019-11-15 10:00:00 1.3 -- -- 49 Norte 0 888.9 1 82
2019-11-15 09:00:00 1.5 -- -- 46 Norte 0 888.7 0.9 85
2019-11-15 08:00:00 1.5 -- -- 47 Norte 0 888.5 0.8 89
2019-11-15 07:00:00 1.2 -- -- 43 Norte 0 887.9 0.6 89
2019-11-15 06:00:00 1.3 -- -- 42 Norte 0 887.8 0.7 89
2019-11-15 05:00:00 1.4 -- -- 41 Norte 0 887.7 0.2 90
2019-11-15 04:00:00 1.4 -- -- 46 Norte 0 887.3 -0.2 90
2019-11-15 03:00:00 1.5 -- -- 43 Norte 0 887.1 -0.7 95
2019-11-15 02:00:00 1.9 -- -- 41 Norte 0 887.5 0.1 90
2019-11-15 01:00:00 1.8 -- -- 46 Norte 0.1 887.5 0.9 98
2019-11-15 00:00:00 1.6 -- -- 49 Norte 0.4 887.8 1.3 98
2019-11-14 23:00:00 1.7 -- -- 46 Norte 0.7 887.4 1.3 96
2019-11-14 22:00:00 1.9 -- -- 50 Norte 0.8 886.6 1.4 95
2019-11-14 21:00:00 1.7 -- -- 31 Norte 0.2 886.5 2.7 97
2019-11-14 20:00:00 1.8 -- -- 40 Norte 0.2 886.1 3.2 94
2019-11-14 19:00:00 3.1 -- -- 51 Norte 0.2 885.2 3.2 85
2019-11-14 18:00:00 2.8 -- -- 57 Norte 0.1 883.8 1.6 88
2019-11-14 17:00:00 3.8 -- -- 67 Norte 0.1 882.9 0.9 76
2019-11-14 16:00:00 3.5 -- -- 59 Norte 1.2 882 -1.3 83
2019-11-14 15:00:00 2.3 -- -- 56 Norte 1.1 882.2 -1.8 91
2019-11-14 14:00:00 2.9 -- -- 34 Norte 0.8 882 -2.4 91
2019-11-14 13:00:00 2 -- -- 59 Norte 0 883.3 -2.3 90
2019-11-14 12:00:00 2.7 -- -- 45 Norte 0 884 -3.4 87
2019-11-14 11:00:00 3.8 -- -- 58 Norte 0 884.4 -3.6 72
2019-11-14 10:00:00 3 -- -- 51 Norte 0.1 885.6 -2.4 74
2019-11-14 09:00:00 1.7 -- -- 29 Norte 0 887.4 -0.8 87
2019-11-14 08:00:00 1.4 -- -- 28 Norte 0 888 -0.3 91
2019-11-14 07:00:00 1.9 -- -- 42 Norte 0 888 -1 80
2019-11-14 06:00:00 2 -- -- 51 Norte 0 888.2 -1.5 78
2019-11-14 05:00:00 2.2 -- -- 55 Norte 0 888.3 -1.1 89
2019-11-14 04:00:00 2.8 -- -- 58 Norte 0.6 889 -1.1 86
2019-11-14 03:00:00 3.4 -- -- 63 Norte 1.4 889.7 -0.4 89
2019-11-14 02:00:00 5.8 -- -- 47 Norte 0.9 889.4 -1.8 85
2019-11-14 01:00:00 7.3 -- -- 44 Norte 0.1 890.1 -2.7 76
2019-11-14 00:00:00 7.8 -- -- 49 Norte 0 890.1 -3.3 67
2019-11-13 23:00:00 7.9 -- -- 55 Norte 0 891.2 -3.1 61
2019-11-13 22:00:00 7.8 -- -- 51 Norte 0 892.8 -2.6 63
2019-11-13 21:00:00 7.7 -- -- 57 Norte 0 893.4 -2.7 63
2019-11-13 20:00:00 7.9 -- -- 55 Norte 0 894.3 -1.8 65
2019-11-13 19:00:00 8.1 -- -- 46 Norte 0 895.4 -1.4 62
2019-11-13 18:00:00 8.3 -- -- 44 Norte 0 896.1 -1 58
2019-11-13 17:00:00 10 -- -- 43 Norte 0 896.1 -1.3 56
2019-11-13 16:00:00 10.9 -- -- 44 Norte 0 896.8 -1.3 54
2019-11-13 15:00:00 12.4 -- -- 36 Norte 0.1 897.1 -0.5 50
2019-11-13 14:00:00 12.2 -- -- 39 Norte 0 897.4 -0.1 51
2019-11-13 13:00:00 11.4 -- -- 30 Norte 0 898.1 0.9 57
2019-11-13 12:00:00 11.6 -- -- 22 Norte 0 897.6 1.6 59
2019-11-13 11:00:00 10.7 -- -- 23 Norte 0 897.5 3 67
2019-11-13 10:00:00 10.1 -- -- 35 Norte 0 897.2 3.8 71
2019-11-13 09:00:00 9 -- -- 31 Norte 0 896 3.7 79
2019-11-13 08:00:00 8.7 -- -- 43 Norte 0 894.5 3.2 81
2019-11-13 07:00:00 9.2 -- -- 45 Norte 0 893.4 2.4 82
2019-11-13 06:00:00 10 -- -- 49 Norte 0 892.3 1.7 76
2019-11-13 05:00:00 10.3 -- -- 48 Norte 0 891.3 1.2 80
2019-11-13 04:00:00 11.2 -- -- 43 Norte 0.1 891 0.9 84
2019-11-13 03:00:00 11.2 -- -- 42 Norte 1.3 890.6 0.2 92
2019-11-13 02:00:00 11.5 -- -- 46 Norte 0.3 890.1 -1 86
2019-11-13 01:00:00 10.1 -- -- 13 Norte 1.1 890.1 -1.5 96
2019-11-13 00:00:00 10.8 -- -- 19 Norte 1.8 890.4 -2 96
2019-11-12 23:00:00 9.9 -- -- 14 Norte 0 891.1 -2.3 97
2019-11-12 22:00:00 8.5 -- -- 8 Norte 0.1 891.6 -2.6 98
2019-11-12 21:00:00 7.7 -- -- 11 Norte 0.6 892.4 -1.8 97
2019-11-12 20:00:00 7.6 -- -- 12 Norte 1.9 893.4 -1.4 97
2019-11-12 19:00:00 7.8 -- -- 14 Norte 1.4 894.2 -1.6 96
2019-11-12 18:00:00 8 -- -- 17 Norte 0.6 894.2 -2.5 92
2019-11-12 17:00:00 8.9 -- -- 14 Norte 0 894.8 -3.3 81
2019-11-12 16:00:00 9.8 -- -- 14 Norte 0.1 895.8 -3.3 71
2019-11-12 15:00:00 10.6 -- -- 16 Norte 0 896.7 -3.2 63
2019-11-12 14:00:00 10.8 -- -- 18 Norte 0 898.1 -2.3 63
2019-11-12 13:00:00 9.5 -- -- 27 Norte 0 899.1 -1.4 67
2019-11-12 12:00:00 8.5 -- -- 25 Norte 0 899.9 -0.7 70
2019-11-12 11:00:00 7.6 -- -- 24 Norte 0 900.4 -0.3 74
2019-11-12 10:00:00 6.8 -- -- 18 Norte 0 900.5 -0.5 76
2019-11-12 09:00:00 5.6 -- -- 18 Norte 0 900.6 -0.2 78
2019-11-12 08:00:00 4.6 -- -- 17 Norte 0 900.7 -0.3 76
2019-11-12 07:00:00 5 -- -- 24 Norte 0 901 -0.3 75
2019-11-12 06:00:00 5.2 -- -- 32 Norte 0 900.8 -1.4 72
2019-11-12 05:00:00 5.7 -- -- 37 Norte 0 901 -1.4 68
2019-11-12 04:00:00 5.6 -- -- 37 Norte 0 901.3 -1.5 66
2019-11-12 03:00:00 5.8 -- -- 25 Norte 0 902.2 -0.9 64
2019-11-12 02:00:00 5.2 -- -- 28 Norte 0 902.4 -1.4 68
2019-11-12 01:00:00 4.6 -- -- 22 Norte 0 902.8 -0.9 73
2019-11-12 00:00:00 3.4 -- -- 17 Norte 0 903.1 -0.4 79
2019-11-11 23:00:00 4.5 -- -- 20 Norte 0 903.8 0.3 76
2019-11-11 22:00:00 5.4 -- -- 31 Norte 0 903.7 0.2 77
2019-11-11 21:00:00 4.8 -- -- 23 Norte 0 903.5 0.7 79
2019-11-11 20:00:00 5.1 -- -- 22 Norte 0 903.5 0.7 74
2019-11-11 19:00:00 6 -- -- 17 Norte 0 903.5 1.4 66
2019-11-11 18:00:00 7.6 -- -- 22 Norte 0 902.8 0.9 54
2019-11-11 17:00:00 9 -- -- 34 Norte 0 902.8 1.8 50
2019-11-11 16:00:00 10.5 -- -- 33 Norte 0 902.1 1.5 49
2019-11-11 15:00:00 11.4 -- -- 36 Norte 0 901.9 0.8 47
2019-11-11 14:00:00 11.7 -- -- 48 Norte 0 901 0.7 50
2019-11-11 13:00:00 11.6 -- -- 51 Norte 0 900.6 -0.1 56
2019-11-11 12:00:00 11.5 -- -- 51 Norte 0 901.1 1 67
2019-11-11 11:00:00 12 -- -- 44 Norte 0 900.3 0.2 72
2019-11-11 10:00:00 11.2 -- -- 41 Norte 0 900.7 1.2 79
2019-11-11 09:00:00 10.9 -- -- 29 Norte 0 900.1 0.1 88
2019-11-11 08:00:00 10.5 -- -- 22 Norte 0 900.1 -0.2 92
2019-11-11 07:00:00 10.4 -- -- 23 Norte 0 899.5 -0.6 90
2019-11-11 06:00:00 9.9 -- -- 31 Norte 0 900 -0.2 90
2019-11-11 05:00:00 9.6 -- -- 35 Norte 0 900.3 -0.3 87
2019-11-11 04:00:00 9.5 -- -- 38 Norte 0 900.1 -1 85
2019-11-11 03:00:00 8.2 -- -- 34 Norte 0 900.2 -2 86
2019-11-11 02:00:00 7.5 -- -- 24 Norte 0 900.6 -1.2 83
2019-11-11 01:00:00 6.1 -- -- 26 Norte 0 901.1 -0.6 83
2019-11-11 00:00:00 7.1 -- -- 33 Norte 0 902.2 0.7 79
2019-11-10 23:00:00 5.7 -- -- 29 Norte 0 901.8 0.1 82
2019-11-10 22:00:00 5.8 -- -- 27 Norte 0 901.7 -0.2 82
2019-11-10 21:00:00 5.3 -- -- 31 Norte 0 901.5 0 83
2019-11-10 20:00:00 5 -- -- 36 Norte 0 901.7 1 85
2019-11-10 19:00:00 4.8 -- -- 31 Norte 0 901.9 1.1 85
2019-11-10 18:00:00 4.9 -- -- 39 Norte 0 901.5 0.5 84
2019-11-10 17:00:00 5.2 -- -- 39 Norte 0 900.7 -0.3 84
2019-11-10 16:00:00 6 -- -- 40 Norte 0.1 900.8 -0.2 81
2019-11-10 15:00:00 5 -- -- 42 Norte 0.1 901 -0.3 85
2019-11-10 14:00:00 5.3 -- -- 48 Norte 0 901 -0.2 84
2019-11-10 13:00:00 4.1 -- -- 48 Norte 0.3 901 -0.2 88
2019-11-10 12:00:00 4.5 -- -- 55 Norte 0 901.3 0.1 82
2019-11-10 11:00:00 4.9 -- -- 40 Norte 0.1 901.2 0 85
2019-11-10 10:00:00 4.5 -- -- 40 Norte 0.2 901.2 0.1 86
2019-11-10 09:00:00 4.3 -- -- 43 Norte 0 901.2 -0.3 82
2019-11-10 08:00:00 4.3 -- -- 40 Norte 0 901.2 -0.3 82
2019-11-10 07:00:00 4.1 -- -- 42 Norte 0 901.1 -0.8 82
2019-11-10 06:00:00 3.9 -- -- 41 Norte 0 901.5 -0.8 82
2019-11-10 05:00:00 4.1 -- -- 44 Norte 0 901.5 -1.3 76
2019-11-10 04:00:00 3.7 -- -- 40 Norte 0 901.9 -0.6 82
2019-11-10 03:00:00 4 -- -- 44 Norte 0 902.3 -0.1 78
2019-11-10 02:00:00 3.6 -- -- 44 Norte 0 902.8 0.5 81
2019-11-10 01:00:00 3.9 -- -- 45 Norte 0 902.5 0.3 80
2019-11-10 00:00:00 4.5 -- -- 44 Norte 0 902.4 0.9 79
2019-11-09 23:00:00 5.3 -- -- 44 Norte 0.2 902.3 0.9 83
2019-11-09 22:00:00 6 -- -- 52 Norte 0 902.2 2 84
2019-11-09 21:00:00 5.8 -- -- 53 Norte 0.4 901.5 1.1 82
2019-11-09 20:00:00 6.6 -- -- 67 Norte 0 901.4 -0.1 70
2019-11-09 19:00:00 8 -- -- 64 Norte 0 900.2 -0.6 65
2019-11-09 18:00:00 8.4 -- -- 44 Norte 0 900.4 -0.2 61
2019-11-09 17:00:00 9.6 -- -- 39 Norte 0 901.5 0.8 60
2019-11-09 16:00:00 11 -- -- 54 Norte 0 900.8 -0.6 58
2019-11-09 15:00:00 11.5 -- -- 52 Norte 0 900.6 -1.3 55
2019-11-09 14:00:00 12 -- -- 50 Norte 0 900.7 -1.7 61
2019-11-09 13:00:00 12.5 -- -- 37 Norte 0 901.4 -0.9 71
2019-11-09 12:00:00 10.7 -- -- 11 Norte 0 901.9 -0.4 77
2019-11-09 11:00:00 7 -- -- 12 Norte 0 902.4 -0.1 89
2019-11-09 10:00:00 5.6 -- -- 8 Norte 0.1 902.3 -0.5 91
2019-11-09 09:00:00 5.3 -- -- 9 Norte 0.1 902.3 -0.5 90
2019-11-09 08:00:00 5.3 -- -- 13 Norte 0.1 902.5 -0.4 84
2019-11-09 07:00:00 5.5 -- -- 12 Norte 0 902.8 -0.7 81
2019-11-09 06:00:00 4.8 -- -- 13 Norte 0 902.8 -0.5 77
2019-11-09 05:00:00 4.8 -- -- 17 Norte 0 902.9 -0.8 72
2019-11-09 04:00:00 4.3 -- -- 26 Norte 0 903.5 -0.8 75
2019-11-09 03:00:00 5.2 -- -- 26 Norte 0 903.3 -0.7 82
2019-11-09 02:00:00 5.4 -- -- 20 Norte 0 903.7 0 76
2019-11-09 01:00:00 4.8 -- -- 37 Norte 0 904.3 0.8 75
2019-11-09 00:00:00 4.9 -- -- 43 Norte 0 904 1.1 73
2019-11-08 23:00:00 4.9 -- -- 47 Norte 0 903.7 0.5 72
2019-11-08 22:00:00 4.7 -- -- 46 Norte 0 903.5 0.8 75
2019-11-08 21:00:00 4.7 -- -- 55 Norte 0 902.9 0.8 74
2019-11-08 20:00:00 4.8 -- -- 57 Norte 0 903.2 1.6 81
2019-11-08 19:00:00 5 -- -- 49 Norte 0 902.7 2 79
2019-11-08 18:00:00 5.8 -- -- 42 Norte 0 902.1 2.3 71
2019-11-08 17:00:00 6.4 -- -- 51 Norte 0 901.6 2.3 64
2019-11-08 16:00:00 6.7 -- -- 59 Norte 0 900.7 2.5 68
2019-11-08 15:00:00 7.5 -- -- 61 Norte 0 899.8 0.4 62
2019-11-08 14:00:00 6.8 -- -- 67 Norte 0 899.3 -0.1 68
2019-11-08 13:00:00 6.8 -- -- 60 Norte 0 898.2 -0.6 67
2019-11-08 12:00:00 6.6 -- -- 54 Norte 0 899.4 1.5 71
2019-11-08 11:00:00 5.9 -- -- 49 Norte 0 899.4 2 72
2019-11-08 10:00:00 4.9 -- -- 50 Norte 0 898.8 2.1 76
2019-11-08 09:00:00 3.8 -- -- 46 Norte 0 897.9 1.7 80
2019-11-08 08:00:00 3.4 -- -- 49 Norte 0 897.4 2.4 79
2019-11-08 07:00:00 3 -- -- 31 Norte 0 896.7 2 82
2019-11-08 06:00:00 2.8 -- -- 53 Norte 0 896.2 1.9 81
2019-11-08 05:00:00 2.9 -- -- 54 Norte 0 895 1.5 80
2019-11-08 04:00:00 2.8 -- -- 47 Norte 0 894.7 0.4 84
2019-11-08 03:00:00 2.6 -- -- 50 Norte 0 894.3 -0.4 83
2019-11-08 02:00:00 3 -- -- 53 Norte 0 893.5 -1.1 78
2019-11-08 01:00:00 2.6 -- -- 36 Norte 0 894.3 -0.4 79
2019-11-08 00:00:00 2.5 -- -- 30 Norte 0 894.7 -0.3 81
2019-11-07 23:00:00 2.3 -- -- 48 Norte 0 894.6 -0.6 82
2019-11-07 22:00:00 2.3 -- -- 53 Norte 0 894.7 -0.2 85
2019-11-07 21:00:00 2.5 -- -- 36 Norte 0.2 895 0.1 83
2019-11-07 20:00:00 1.8 -- -- 46 Norte 0 895.2 -0.1 95
2019-11-07 19:00:00 3.5 -- -- 47 Norte 0 894.9 -0.5 71
2019-11-07 18:00:00 3.7 -- -- 37 Norte 0 894.9 0.3 72
2019-11-07 17:00:00 4.2 -- -- 45 Norte 0 895.3 0 75
2019-11-07 16:00:00 3.2 -- -- 52 Norte 0.5 895.4 -0.4 89
2019-11-07 15:00:00 5.5 -- -- 51 Norte 0 894.6 -1.1 79
2019-11-07 14:00:00 5.4 -- -- 37 Norte 0.4 895.3 -0.3 86
2019-11-07 13:00:00 5.4 -- -- 45 Norte 0.5 895.8 0.3 85
2019-11-07 12:00:00 6.5 -- -- 49 Norte 0 895.7 0 72
2019-11-07 11:00:00 6.3 -- -- 44 Norte 0 895.6 0.5 72
2019-11-07 10:00:00 6.2 -- -- 40 Norte 0 895.5 0.6 72
2019-11-07 09:00:00 4.8 -- -- 39 Norte 0 895.7 0.6 84
2019-11-07 08:00:00 4.6 -- -- 46 Norte 0 895.1 0 77
2019-11-07 07:00:00 4.7 -- -- 41 Norte 0.1 894.9 -0.6 83
2019-11-07 06:00:00 5.1 -- -- 42 Norte 0.2 895.1 -0.2 85
2019-11-07 05:00:00 5.9 -- -- 35 Norte 0 895.1 -0.1 82
2019-11-07 04:00:00 6.3 -- -- 37 Norte 0 895.5 0.4 82
2019-11-07 03:00:00 6.6 -- -- 45 Norte 0 895.3 0.2 81
2019-11-07 02:00:00 8.6 -- -- 42 Norte 0 895.2 -0.2 78
2019-11-07 01:00:00 9.1 -- -- 45 Norte 0 895.1 -0.6 84
2019-11-07 00:00:00 10.7 -- -- 35 Norte 0 895.1 -0.7 81
2019-11-06 23:00:00 8.9 -- -- 6 Norte 0 895.4 -1.3 94
2019-11-06 22:00:00 9.3 -- -- 29 Norte 0 895.7 -1 90
2019-11-06 21:00:00 11 -- -- 27 Norte 0 895.8 -1 85
2019-11-06 20:00:00 9.1 -- -- 10 Norte 0 896.7 -0.4 93
2019-11-06 19:00:00 9.5 -- -- 13 Norte 0.3 896.7 -0.9 89
2019-11-06 18:00:00 10.3 -- -- 17 Norte 0 896.8 -1.2 73
2019-11-06 17:00:00 11.7 -- -- 24 Norte 0 897.1 -1.5 68
2019-11-06 16:00:00 11.9 -- -- 26 Norte 0 897.6 -1.8 66
2019-11-06 15:00:00 12.2 -- -- 29 Norte 0 898 -2.4 65
2019-11-06 14:00:00 11.7 -- -- 28 Norte 0 898.6 -1.8 64
2019-11-06 13:00:00 11 -- -- 25 Norte 0 899.4 -0.9 65
2019-11-06 12:00:00 9.6 -- -- 24 Norte 0 900.4 0.1 69
2019-11-06 11:00:00 9 -- -- 25 Norte 0 900.4 0.4 75
2019-11-06 10:00:00 8.2 -- -- 23 Norte 0 900.3 0.4 75
2019-11-06 09:00:00 7.7 -- -- 24 Norte 0 900.3 0.3 75
2019-11-06 08:00:00 7.4 -- -- 24 Norte 0 900 0 76
2019-11-06 07:00:00 7.2 -- -- 24 Norte 0 899.9 -0.3 75
2019-11-06 06:00:00 6.9 -- -- 26 Norte 0 900 -0.4 73
2019-11-06 05:00:00 6.6 -- -- 30 Norte 0 900 0 75
2019-11-06 04:00:00 6 -- -- 27 Norte 0 900.2 0 75
2019-11-06 03:00:00 6.7 -- -- 15 Norte 0 900.4 0.6 75
2019-11-06 02:00:00 6.6 -- -- 19 Norte 0 900 0.8 76
2019-11-06 01:00:00 7.2 -- -- 20 Norte 0 900.2 1 75
2019-11-06 00:00:00 7.3 -- -- 55 Norte 0 899.8 0.9 74
2019-11-05 23:00:00 7.1 -- -- 58 Norte 0 899.2 0.5 75
2019-11-05 22:00:00 7.3 -- -- 47 Norte 0 899.2 1 75
2019-11-05 21:00:00 7.2 -- -- 44 Norte 0 898.9 1.6 75
2019-11-05 20:00:00 7.5 -- -- 47 Norte 0 898.7 1.4 76
2019-11-05 19:00:00 7.8 -- -- 49 Norte 0 898.2 2 78
2019-11-05 18:00:00 8.3 -- -- 46 Norte 0 897.3 1.2 74
2019-11-05 17:00:00 8.8 -- -- 48 Norte 0 897.3 2.1 73
2019-11-05 16:00:00 10.2 -- -- 55 Norte 0 896.2 1.7 69
2019-11-05 15:00:00 9.6 -- -- 50 Norte 0 896.1 1.9 72
2019-11-05 14:00:00 9.6 -- -- 56 Norte 0 895.2 1.2 73
2019-11-05 13:00:00 9.8 -- -- 62 Norte 0 894.5 1.1 70
2019-11-05 12:00:00 9.5 -- -- 63 Norte 0.5 894.2 1.6 74
2019-11-05 11:00:00 8.8 -- -- 57 Norte 0 894 2 77
2019-11-05 10:00:00 8.6 -- -- 51 Norte 0 893.4 1.5 73
2019-11-05 09:00:00 7.5 -- -- 46 Norte 0.1 892.6 1.1 78
2019-11-05 08:00:00 7.4 -- -- 28 Norte 0 892 1 75
2019-11-05 07:00:00 7.3 -- -- 28 Norte 0 891.9 1.8 75
2019-11-05 06:00:00 6.8 -- -- 41 Norte 0 891.5 0.6 75
2019-11-05 05:00:00 6.4 -- -- 52 Norte 0 891 0.8 75
2019-11-05 04:00:00 5.9 -- -- 42 Norte 0 890.1 -0.6 75
2019-11-05 03:00:00 5.7 -- -- 44 Norte 0 890.9 0.2 77
2019-11-05 02:00:00 5.5 -- -- 45 Norte 0 890.2 -0.4 76
2019-11-05 01:00:00 6.4 -- -- 40 Norte 0 890.7 0.3 70
2019-11-05 00:00:00 6.1 -- -- 39 Norte 0 890.7 0.2 71
2019-11-04 23:00:00 6.2 -- -- 53 Norte 0 890.6 -0.2 70
2019-11-04 22:00:00 6.4 -- -- 58 Norte 0 890.4 -0.4 66
2019-11-04 21:00:00 6.5 -- -- 41 Norte 0 890.5 0.1 72
2019-11-04 20:00:00 6.7 -- -- 48 Norte 0 890.8 0.6 75
2019-11-04 19:00:00 6.7 -- -- 50 Norte 0 890.8 0.6 68
2019-11-04 18:00:00 7.8 -- -- 40 Norte 0 890.4 0.4 74
2019-11-04 17:00:00 9.2 -- -- 44 Norte 0 890.2 0.5 68
2019-11-04 16:00:00 10.3 -- -- 44 Norte 0 890.2 0.4 67
2019-11-04 15:00:00 11.7 -- -- 57 Norte 0 890 -1.1 62
2019-11-04 14:00:00 12.9 -- -- 69 Norte 0 889.7 -1.3 59
2019-11-04 13:00:00 14.1 -- -- 63 Norte 0 889.8 -1 51
2019-11-04 12:00:00 12.6 -- -- 58 Norte 0 891.1 0.7 57
2019-11-04 11:00:00 11.4 -- -- 45 Norte 0 891 0.7 69
2019-11-04 10:00:00 13.1 -- -- 41 Norte 0 890.8 0.4 67
2019-11-04 09:00:00 12.9 -- -- 42 Norte 0 890.4 -0.6 71
2019-11-04 08:00:00 13.6 -- -- 41 Norte 0 890.3 -0.8 61
2019-11-04 07:00:00 13.8 -- -- 45 Norte 0 890.4 -1.2 54
2019-11-04 06:00:00 13.7 -- -- 39 Norte 0 891 -0.8 61
2019-11-04 05:00:00 13.6 -- -- 45 Norte 0 891.1 -1.1 63
2019-11-04 04:00:00 13.3 -- -- 37 Norte 0 891.6 -1 64
2019-11-04 03:00:00 13.1 -- -- 59 Norte 0 891.8 -1 61
2019-11-04 02:00:00 13.2 -- -- 40 Norte 0 892.2 -1.4 58
2019-11-04 01:00:00 13.6 -- -- 45 Norte 0 892.6 -1.1 61
2019-11-04 00:00:00 13.6 -- -- 48 Norte 0 892.8 -1.4 68
2019-11-03 23:00:00 13.1 -- -- 41 Norte 0 893.6 -0.3 75
2019-11-03 22:00:00 13.1 -- -- 38 Norte 0 893.7 0.2 73
2019-11-03 21:00:00 13 -- -- 31 Norte 0 894.2 1.1 76
2019-11-03 20:00:00 13.5 -- -- 30 Norte 0 893.9 1.1 74
2019-11-03 19:00:00 13.1 -- -- 54 Norte 0 893.5 1.2 75
2019-11-03 18:00:00 13.5 -- -- 58 Norte 0 893.1 1.3 69
2019-11-03 17:00:00 14.2 -- -- 82 Norte 0 892.8 0.4 63
2019-11-03 16:00:00 13.5 -- -- 57 Norte 0 892.3 -0.3 61
2019-11-03 15:00:00 13.2 -- -- 80 Norte 0 891.8 -1 55
2019-11-03 14:00:00 12.4 -- -- 67 Norte 0 892.4 0.5 57
2019-11-03 13:00:00 11.6 -- -- 56 Norte 0 892.6 1.5 61
2019-11-03 12:00:00 10.5 -- -- 63 Norte 0 892.8 2.6 61
2019-11-03 11:00:00 9 -- -- 51 Norte 0 891.9 3.5 70
2019-11-03 10:00:00 7.5 -- -- 45 Norte 0 891.1 3.5 72
2019-11-03 09:00:00 6.8 -- -- 72 Norte 0 890.2 3.8 82
2019-11-03 08:00:00 6.2 -- -- 69 Norte 0 888.4 3 75
2019-11-03 07:00:00 7.2 -- -- 72 Norte 0 887.6 2.2 79
2019-11-03 06:00:00 7.8 -- -- 71 Norte 0.1 886.4 2.5 77
2019-11-03 05:00:00 7.8 -- -- 64 Norte 0.1 885.4 1.5 85
2019-11-03 04:00:00 8.1 -- -- 76 Norte 0.5 885.4 0.2 88
2019-11-03 03:00:00 12.4 -- -- 59 Norte 0 883.9 -2.2 75
2019-11-03 02:00:00 12.7 -- -- 64 Norte 0 883.9 -3.3 68
2019-11-03 01:00:00 12 -- -- 67 Norte 0 885.2 -2.5 73
2019-11-03 00:00:00 12.1 -- -- 56 Norte 0 886.1 -2.7 65
2019-11-02 23:00:00 11.2 -- -- 35 Norte 0 887.2 -2.1 68
2019-11-02 22:00:00 11.2 -- -- 37 Norte 0 887.7 -2.4 63
2019-11-02 21:00:00 11.4 -- -- 45 Norte 0 888.8 -1.9 60
2019-11-02 20:00:00 12.1 -- -- 44 Norte 0 889.3 -2.2 52
2019-11-02 19:00:00 12.3 -- -- 32 Norte 0 890.1 -2 54
2019-11-02 18:00:00 12.1 -- -- 34 Norte 0 890.7 -1.4 51
2019-11-02 17:00:00 13 -- -- 40 Norte 0 891.5 -1.1 51
2019-11-02 16:00:00 13.5 -- -- 32 Norte 0 892.1 -1 53
2019-11-02 15:00:00 14.3 -- -- 30 Norte 0 892.1 -1.4 50
2019-11-02 14:00:00 14.9 -- -- 33 Norte 0 892.6 -1.7 47
2019-11-02 13:00:00 16 -- -- 13 Norte 0 893.1 -1.7 53
2019-11-02 12:00:00 14.5 -- -- 13 Norte 0 893.5 -1.1 61
2019-11-02 11:00:00 13.2 -- -- 17 Norte 0 894.3 0 69
2019-11-02 10:00:00 12.8 -- -- 22 Norte 0 894.8 0.2 69
2019-11-02 09:00:00 11.9 -- -- 40 Norte 0 894.6 0.1 77
2019-11-02 08:00:00 12.7 -- -- 40 Norte 0 894.3 -0.5 77
2019-11-02 07:00:00 12.6 -- -- 12 Norte 1.2 894.6 -0.7 93
2019-11-02 06:00:00 13.4 -- -- 14 Norte 0.1 894.5 -1.6 83
2019-11-02 05:00:00 13.8 -- -- 21 Norte 0 894.8 -1.8 79
2019-11-02 04:00:00 13.5 -- -- 16 Norte 0 895.3 -2 83
2019-11-02 03:00:00 12.6 -- -- 14 Norte 0.1 896.1 -1.9 93
2019-11-02 02:00:00 12.7 -- -- 8 Norte 0.2 896.6 -1.5 91
2019-11-02 01:00:00 13.6 -- -- 14 Norte 0.1 897.3 -1.4 85
2019-11-02 00:00:00 14.5 -- -- 32 Norte 0 898 -1.1 75
2019-11-01 23:00:00 15.6 -- -- 21 Norte 0 898.1 -1.2 65
2019-11-01 22:00:00 15.5 -- -- 24 Norte 0 898.7 -0.8 64
2019-11-01 21:00:00 15.8 -- -- 25 Norte 0 899.1 -0.5 62
2019-11-01 20:00:00 15.2 -- -- 24 Norte 0 899.3 -0.4 65
2019-11-01 19:00:00 15.1 -- -- 23 Norte 0 899.5 -0.5 65
2019-11-01 18:00:00 16.8 -- -- 30 Norte 0 899.6 -0.4 57
2019-11-01 17:00:00 18.6 -- -- 37 Norte 0 899.7 -0.9 49
2019-11-01 16:00:00 18.6 -- -- 71 Norte 0 900 -2.2 49
2019-11-01 15:00:00 18.5 -- -- 72 Norte 0 900 -2.7 57
2019-11-01 14:00:00 19.1 -- -- 41 Norte 0 900.6 -2.9 56
2019-11-01 13:00:00 18.1 -- -- 32 Norte 0 902.2 -1.7 66
2019-11-01 12:00:00 17 -- -- 11 Norte 0.6 902.7 -1.3 86
2019-11-01 11:00:00 17.1 -- -- 17 Norte 0 903.5 -0.5 83
2019-11-01 10:00:00 15.6 -- -- 6 Norte 0.1 903.9 -0.2 89
2019-11-01 09:00:00 15.5 -- -- 12 Norte 0 904 -0.6 86
2019-11-01 08:00:00 15.4 -- -- 30 Norte 0.2 904 -0.5 85
2019-11-01 07:00:00 16.4 -- -- 31 Norte 0 904.1 -0.7 73
2019-11-01 06:00:00 16.2 -- -- 33 Norte 0 904.6 -1 76
2019-11-01 05:00:00 16.5 -- -- 64 Norte 0 904.5 -1.4 70
2019-11-01 04:00:00 16.8 -- -- 34 Norte 0 904.8 -1.6 69
2019-11-01 03:00:00 16.3 -- -- 21 Norte 0 905.6 -1.1 75
2019-11-01 02:00:00 15.8 -- -- 27 Norte 0 905.9 -0.9 78
2019-11-01 01:00:00 14.1 -- -- 8 Norte 0 906.4 -0.4 94
2019-11-01 00:00:00 14.3 -- -- 3 Norte 0 906.7 -0.4 93
2019-10-31 23:00:00 14.6 -- -- 7 Norte 0 906.8 -0.5 93
2019-10-31 22:00:00 14.6 -- -- 10 Norte 0 906.8 -0.3 88
2019-10-31 21:00:00 15.1 -- -- 9 Norte 0 907.1 -0.1 87
2019-10-31 20:00:00 15.7 -- -- 17 Norte 0 907.3 0.2 86
2019-10-31 19:00:00 15.9 -- -- 12 Norte 0 907.1 -0.1 82
2019-10-31 18:00:00 17.2 -- -- 12 Norte 0 907.2 -0.2 68
2019-10-31 17:00:00 18.5 -- -- 14 Norte 0 907.1 -0.6 58
2019-10-31 16:00:00 19.4 -- -- 17 Norte 0 907.2 -0.8 54
2019-10-31 15:00:00 20.1 -- -- 18 Norte 0 907.4 -1.1 49
2019-10-31 14:00:00 20 -- -- 31 Norte 0 907.7 -0.9 45
2019-10-31 13:00:00 20.7 -- -- 22 Norte 0 908 -0.3 45
2019-10-31 12:00:00 18.7 -- -- 33 Norte 0 908.5 0.6 48
2019-10-31 11:00:00 16.6 -- -- 25 Norte 0.1 908.6 0.9 57
2019-10-31 10:00:00 16.3 -- -- 15 Norte 0 908.3 0.7 65
2019-10-31 09:00:00 13.7 -- -- 9 Norte 0 907.9 0.6 83
2019-10-31 08:00:00 12.8 -- -- 6 Norte 0 907.7 0.9 80
2019-10-31 07:00:00 13.2 -- -- 11 Norte 0 907.6 0.6 77
2019-10-31 06:00:00 12.8 -- -- 12 Norte 0 907.3 0.3 76
2019-10-31 05:00:00 12.8 -- -- 11 Norte 0 906.8 -0.1 74
2019-10-31 04:00:00 12.8 -- -- 9 Norte 0 907 -0.1 78
2019-10-31 03:00:00 12.6 -- -- 7 Norte 0 907 -0.2 73
2019-10-31 02:00:00 13.7 -- -- 10 Norte 0 906.9 0.1 71
2019-10-31 01:00:00 13.4 -- -- 19 Norte 0 907.1 0.4 71
2019-10-31 00:00:00 14.3 -- -- 24 Norte 0 907.2 0.7 69
2019-10-30 23:00:00 14.4 -- -- 19 Norte 0 906.8 0.5 73
2019-10-30 22:00:00 12.4 -- -- 10 Norte 0 906.7 0.9 93
2019-10-30 21:00:00 12.3 -- -- 7 Norte 0 906.5 1 94
2019-10-30 20:00:00 13.4 -- -- 8 Norte 0 906.3 0.8 94
2019-10-30 19:00:00 13.4 -- -- 12 Norte 0 905.8 0.7 93
2019-10-30 18:00:00 14.7 -- -- 10 Norte 0 905.5 0.4 86
2019-10-30 17:00:00 15 -- -- 12 Norte 0 905.5 0.1 88
2019-10-30 16:00:00 15 -- -- 11 Norte 0 905.1 -0.5 92
2019-10-30 15:00:00 14.1 -- -- 14 Norte 0 905.1 -1.1 96
2019-10-30 14:00:00 13.3 -- -- 15 Norte 0 905.4 -0.5 97
2019-10-30 13:00:00 13.2 -- -- 6 Norte 0.2 905.6 -0.1 97
2019-10-30 12:00:00 12.3 -- -- 17 Norte 0.1 906.2 0.5 97
2019-10-30 11:00:00 12.6 -- -- 12 Norte 0 905.9 0.5 96
2019-10-30 10:00:00 11.9 -- -- 11 Norte 0.3 905.7 0.4 96
2019-10-30 09:00:00 11.7 -- -- 6 Norte 0 905.7 0.4 96
2019-10-30 08:00:00 11.3 -- -- 4 Norte 0 905.4 0.3 95
2019-10-30 07:00:00 11.2 -- -- 7 Norte 0 905.3 0.2 95
2019-10-30 06:00:00 10.8 -- -- 6 Norte 0 905.3 0.1 93
2019-10-30 05:00:00 11.2 -- -- 9 Norte 0 905.1 0.1 91
2019-10-30 04:00:00 12.9 -- -- 11 Norte 0 905.1 0 89
2019-10-30 03:00:00 12.6 -- -- 14 Norte 0 905.2 0 89
2019-10-30 02:00:00 12.6 -- -- 14 Norte 0 905 -0.3 89
2019-10-30 01:00:00 12.7 -- -- 7 Norte 0 905.1 0.3 88
2019-10-30 00:00:00 12.2 -- -- 4 Norte 0 905.2 0.7 88
2019-10-29 23:00:00 13.4 -- -- 7 Norte 0 905.3 1.1 79
2019-10-29 22:00:00 14.7 -- -- 7 Norte 0 904.8 1.1 72
2019-10-29 21:00:00 15.2 -- -- 9 Norte 0 904.5 1.1 68
2019-10-29 20:00:00 15.3 -- -- 12 Norte 0 904.2 1 65
2019-10-29 19:00:00 16.2 -- -- 7 Norte 0 903.7 0.6 61
2019-10-29 18:00:00 17.4 -- -- 14 Norte 0 903.4 0.6 55
2019-10-29 17:00:00 18.1 -- -- 19 Norte 0 903.2 0.2 50
2019-10-29 16:00:00 18.7 -- -- 16 Norte 0 903.1 -0.3 45
2019-10-29 15:00:00 19 -- -- 20 Norte 0 902.8 -0.6 45
2019-10-29 14:00:00 18.5 -- -- 18 Norte 0 903 -0.5 51
2019-10-29 13:00:00 17.2 -- -- 17 Norte 0 903.4 0.4 57
2019-10-29 12:00:00 16.5 -- -- 18 Norte 0 903.4 0.7 65
2019-10-29 11:00:00 16.7 -- -- 12 Norte 0 903.5 1.8 60
2019-10-29 10:00:00 15.4 -- -- 10 Norte 0 903 1.4 71
2019-10-29 09:00:00 11.5 -- -- 12 Norte 0 902.7 1.4 89
2019-10-29 08:00:00 9.1 -- -- 9 Norte 0.1 901.7 0.4 96
2019-10-29 07:00:00 10.3 -- -- 7 Norte 0 901.6 0.4 96
2019-10-29 06:00:00 10.3 -- -- 12 Norte 0 901.3 0 96
2019-10-29 05:00:00 10.7 -- -- 10 Norte 0 901.3 -0.1 96
2019-10-29 04:00:00 10.5 -- -- 6 Norte 0 901.2 -0.6 94
2019-10-29 03:00:00 12 -- -- 9 Norte 0 901.3 -0.3 94
2019-10-29 02:00:00 12.4 -- -- 4 Norte 0 901.4 -0.5 93
2019-10-29 01:00:00 12.7 -- -- 7 Norte 0 901.8 -0.2 91
2019-10-29 00:00:00 11.6 -- -- 5 Norte 0 901.6 0 90
2019-10-28 23:00:00 13.2 -- -- 6 Norte 0 901.9 0.2 85
2019-10-28 22:00:00 13.9 -- -- 9 Norte 0 902 0.3 81
2019-10-28 21:00:00 14 -- -- 9 Norte 0 901.6 0.2 81
2019-10-28 20:00:00 14.8 -- -- 12 Norte 0 901.7 0.4 72
2019-10-28 19:00:00 16.2 -- -- 14 Norte 0 901.7 0.2 65
2019-10-28 18:00:00 17.4 -- -- 10 Norte 0 901.4 -0.2 63
2019-10-28 17:00:00 18.4 -- -- 16 Norte 0 901.3 -0.6 57
2019-10-28 16:00:00 18.9 -- -- 15 Norte 0 901.5 -1.1 54
2019-10-28 15:00:00 18.9 -- -- 17 Norte 0 901.6 -1.4 54
2019-10-28 14:00:00 19.3 -- -- 19 Norte 0 901.9 -1.3 52
2019-10-28 13:00:00 17.8 -- -- 12 Norte 0 902.6 -0.7 60
2019-10-28 12:00:00 15.4 -- -- 12 Norte 0 903 0.1 67
2019-10-28 11:00:00 14.2 -- -- 12 Norte 0 903.2 0.9 74
2019-10-28 10:00:00 12.4 -- -- 10 Norte 0 903.3 0.7 93
2019-10-28 09:00:00 9.9 -- -- 6 Norte 0 902.9 0.2 97
2019-10-28 08:00:00 8.4 -- -- 6 Norte 0 902.3 -0.3 97
2019-10-28 07:00:00 7.9 -- -- 6 Norte 0 902.6 -0.5 96
2019-10-28 06:00:00 8.4 -- -- 6 Norte 0 902.7 -0.8 95
2019-10-28 05:00:00 9.8 -- -- 6 Norte 0 902.6 -1 94
2019-10-28 04:00:00 10.5 -- -- 4 Norte 0 903.1 -0.9 93
2019-10-28 03:00:00 11.1 -- -- 10 Norte 0 903.5 -0.9 90
2019-10-28 02:00:00 11.4 -- -- 14 Norte 0 903.6 -0.9 90
2019-10-28 01:00:00 11.1 -- -- 9 Norte 0 904 -0.5 90
2019-10-28 00:00:00 11.1 -- -- 5 Norte 0 904.4 0.2 91
2019-10-27 23:00:00 10.9 -- -- 4 Norte 0 904.5 0 90
2019-10-27 22:00:00 11.6 -- -- 5 Norte 0 904.5 0.4 87
2019-10-27 21:00:00 12.1 -- -- 6 Norte 0 904.2 0.1 85
2019-10-27 20:00:00 12.7 -- -- 12 Norte 0 904.5 0.2 80
2019-10-27 19:00:00 13.4 -- -- 12 Norte 0 904.1 -0.3 75
2019-10-27 18:00:00 14.4 -- -- 9 Norte 0 904.1 -0.2 70
2019-10-27 17:00:00 15.1 -- -- 10 Norte 0 904.3 -0.5 65
2019-10-27 16:00:00 15.6 -- -- 9 Norte 0 904.4 -0.8 64
2019-10-27 15:00:00 15.5 -- -- 13 Norte 0 904.3 -1.5 64
2019-10-27 14:00:00 15.1 -- -- 12 Norte 0 904.8 -1.1 63
2019-10-27 13:00:00 15.5 -- -- 10 Norte 0 905.2 -0.8 66
2019-10-27 12:00:00 13.5 -- -- 9 Norte 0 905.8 0.6 76
2019-10-27 11:00:00 12.9 -- -- 8 Norte 0 905.9 0.9 78
2019-10-27 10:00:00 12.3 -- -- 5 Norte 0 906 1.2 89
2019-10-27 09:00:00 10.4 -- -- 7 Norte 0 905.2 0.5 93
2019-10-27 08:00:00 9.4 -- -- 6 Norte 0 905 0.2 93
2019-10-27 07:00:00 8.6 -- -- 5 Norte 0 904.8 -0.1 93
2019-10-27 06:00:00 8.6 -- -- 5 Norte 0 904.7 -0.5 91
2019-10-27 05:00:00 9.7 -- -- 6 Norte 0 904.8 -0.7 90
2019-10-27 04:00:00 9.6 -- -- 6 Norte 0 904.9 -0.9 89
2019-10-27 03:00:00 10.6 -- -- 6 Norte 0 905.2 -0.7 85
2019-10-27 02:00:00 10.9 -- -- 11 Norte 0 905.5 -0.2 78
2019-10-27 01:00:00 12.8 -- -- 16 Norte 0 905.9 0.5 75
2019-10-27 00:00:00 11.4 -- -- 9 Norte 0 905.7 0.7 76
2019-10-26 23:00:00 10.9 -- -- 9 Norte 0 905.6 1 76
2019-10-26 22:00:00 10.6 -- -- 10 Norte 0 905.4 1.3 79
2019-10-26 21:00:00 11.8 -- -- 9 Norte 0 905 1.3 68
2019-10-26 20:00:00 14.7 -- -- 13 Norte 0 904.6 0.6 50
2019-10-26 19:00:00 18.1 -- -- 20 Norte 0 904.1 0.1 39
2019-10-26 18:00:00 19.5 -- -- 22 Norte 0 903.7 -0.7 33
2019-10-26 17:00:00 20.5 -- -- 22 Norte 0 904 -1 33
2019-10-26 16:00:00 20.2 -- -- 22 Norte 0 904 -1.5 38
2019-10-26 15:00:00 18.3 -- -- 18 Norte 0 904.4 -1.3 53
2019-10-26 14:00:00 16.3 -- -- 17 Norte 0 905 -0.7 61
2019-10-26 13:00:00 14.8 -- -- 9 Norte 0 905.5 0.2 69
2019-10-26 12:00:00 12.9 -- -- 10 Norte 0 905.7 0.8 79
2019-10-26 11:00:00 10.9 -- -- 10 Norte 0 905.7 1 93
2019-10-26 10:00:00 8.2 -- -- 7 Norte 0 905.3 0.7 97
2019-10-26 09:00:00 6.4 -- -- 11 Norte 0 904.9 0.3 97
2019-10-26 08:00:00 6.1 -- -- 13 Norte 0 904.7 -0.2 97
2019-10-26 07:00:00 6.6 -- -- 9 Norte 0 904.6 -0.7 97
2019-10-26 06:00:00 5.1 -- -- 8 Norte 0 904.6 -1.2 97
2019-10-26 05:00:00 5.2 -- -- 6 Norte 0 904.9 -1.1 96
2019-10-26 04:00:00 5.8 -- -- 5 Norte 0 905.3 -1.1 96
2019-10-26 03:00:00 7.1 -- -- 5 Norte 0 905.8 -0.8 96
2019-10-26 02:00:00 6.8 -- -- 8 Norte 0 906 -0.5 96
2019-10-26 01:00:00 7.5 -- -- 7 Norte 0 906.4 -0.2 95
2019-10-26 00:00:00 7.9 -- -- 4 Norte 0 906.6 0.1 94
2019-10-25 23:00:00 8.2 -- -- 5 Norte 0 906.5 0.1 93
2019-10-25 22:00:00 9.4 -- -- 8 Norte 0 906.6 0.6 89
2019-10-25 21:00:00 10.9 -- -- 12 Norte 0 906.5 0.3 83
2019-10-25 20:00:00 12.5 -- -- 17 Norte 0 906.4 0.4 75
2019-10-25 19:00:00 14.8 -- -- 21 Norte 0 906 -0.3 66
2019-10-25 18:00:00 16 -- -- 23 Norte 0 906.2 -0.5 61
2019-10-25 17:00:00 17.2 -- -- 24 Norte 0 906 -1.1 59
2019-10-25 16:00:00 15.8 -- -- 25 Norte 0 906.3 -1.6 62
2019-10-25 15:00:00 15.3 -- -- 26 Norte 0 906.7 -1.5 66
2019-10-25 14:00:00 14.4 -- -- 24 Norte 0 907.1 -1.1 69
2019-10-25 13:00:00 11 -- -- 9 Norte 0 907.9 0.2 97
2019-10-25 12:00:00 9.4 -- -- 10 Norte 0 908.2 0.9 98
2019-10-25 11:00:00 9 -- -- 9 Norte 0 908.2 1 98
2019-10-25 10:00:00 8.8 -- -- 9 Norte 0 907.7 0.5 98
2019-10-25 09:00:00 8.7 -- -- 8 Norte 0 907.3 0.3 98
2019-10-25 08:00:00 8.6 -- -- 6 Norte 0 907.2 0.4 98
2019-10-25 07:00:00 8.7 -- -- 5 Norte 0.1 907.2 0.2 98
2019-10-25 06:00:00 9 -- -- 9 Norte 0 907 -0.2 98
2019-10-25 05:00:00 9.3 -- -- 11 Norte 0 906.8 -0.8 98
2019-10-25 04:00:00 9.8 -- -- 7 Norte 0 907 -0.4 98
2019-10-25 03:00:00 8.7 -- -- 8 Norte 0 907.2 0 98
2019-10-25 02:00:00 5.9 -- -- 6 Norte 0 907.6 0.8 98
2019-10-25 01:00:00 6.4 -- -- 7 Norte 0 907.4 1.2 97
2019-10-25 00:00:00 7 -- -- 7 Norte 0 907.2 1.3 96
2019-10-24 23:00:00 7.9 -- -- 6 Norte 0 906.8 1.5 93
2019-10-24 22:00:00 9.6 -- -- 6 Norte 0 906.2 1.4 88
2019-10-24 21:00:00 12 -- -- 12 Norte 0 905.9 1.7 82
2019-10-24 20:00:00 12.8 -- -- 15 Norte 0 905.3 1.8 78
2019-10-24 19:00:00 14.1 -- -- 32 Norte 0 904.8 1.8 72
2019-10-24 18:00:00 14.1 -- -- 37 Norte 0 904.2 1.4 69
2019-10-24 17:00:00 15.6 -- -- 39 Norte 0 903.5 0.7 63
2019-10-24 16:00:00 15.5 -- -- 36 Norte 0 903 0.7 66
2019-10-24 15:00:00 15.3 -- -- 35 Norte 0 902.8 0.8 67
2019-10-24 14:00:00 14.3 -- -- 11 Norte 0 902.8 1.7 76
2019-10-24 13:00:00 12.8 -- -- 12 Norte 0 902.3 2.1 83
2019-10-24 12:00:00 12.3 -- -- 12 Norte 0 902 2.4 77
2019-10-24 11:00:00 9.7 -- -- 14 Norte 0 901.1 1.8 86
2019-10-24 10:00:00 7.8 -- -- 17 Norte 0 900.2 1.4 86
2019-10-24 09:00:00 8 -- -- 17 Norte 0 899.6 1.2 86
2019-10-24 08:00:00 7.8 -- -- 21 Norte 0 899.3 1.4 85
2019-10-24 07:00:00 7.4 -- -- 30 Norte 0 898.8 0.9 76
2019-10-24 06:00:00 7.3 -- -- 13 Norte 0 898.4 0.9 71
2019-10-24 05:00:00 7.3 -- -- 15 Norte 0 897.9 0.6 75
2019-10-24 04:00:00 7 -- -- 14 Norte 0 897.9 0.9 76
2019-10-24 03:00:00 7.4 -- -- 22 Norte 0 897.5 1 76
2019-10-24 02:00:00 7.5 -- -- 27 Norte 0 897.3 1.1 76
2019-10-24 01:00:00 7.6 -- -- 31 Norte 0 897 0.9 79
2019-10-24 00:00:00 7.8 -- -- 32 Norte 0 896.5 0.9 83
2019-10-23 23:00:00 7.1 -- -- 17 Norte 0 896.2 1.4 91
2019-10-23 22:00:00 7.5 -- -- 30 Norte 1.1 896.1 2.4 89
2019-10-23 21:00:00 7.1 -- -- 36 Norte 1.1 895.6 2.3 89
2019-10-23 20:00:00 7.3 -- -- 46 Norte 0.6 894.8 1 85
2019-10-23 19:00:00 7.8 -- -- 52 Norte 0 893.7 0.4 84
2019-10-23 18:00:00 8.2 -- -- 50 Norte 0.7 893.3 -0.2 83
2019-10-23 17:00:00 8 -- -- 38 Norte 1.4 893.8 0.1 85
2019-10-23 16:00:00 8.4 -- -- 35 Norte 0.1 893.3 -0.1 81
2019-10-23 15:00:00 8.4 -- -- 37 Norte 0 893.5 -0.1 82
2019-10-23 14:00:00 8.3 -- -- 37 Norte 0.1 893.7 0.9 84
2019-10-23 13:00:00 8.2 -- -- 39 Norte 0.9 893.4 1 84
2019-10-23 12:00:00 8.3 -- -- 32 Norte 0.1 893.6 1.6 82
2019-10-23 11:00:00 8.1 -- -- 41 Norte 1.2 892.8 1.6 82
2019-10-23 10:00:00 8.9 -- -- 46 Norte 0 892.4 0.2 72
2019-10-23 09:00:00 9 -- -- 47 Norte 0 892 -0.6 68
2019-10-23 08:00:00 8.8 -- -- 44 Norte 0 891.2 -1.9 68
2019-10-23 07:00:00 8.8 -- -- 41 Norte 0 892.2 -1.5 69
2019-10-23 06:00:00 8.7 -- -- 39 Norte 0 892.6 -1.5 71
2019-10-23 05:00:00 8.6 -- -- 39 Norte 0 893.1 -2.1 72
2019-10-23 04:00:00 8.4 -- -- 36 Norte 0 893.7 -2.5 72
2019-10-23 03:00:00 8.3 -- -- 38 Norte 0 894.1 -2.9 75
2019-10-23 02:00:00 8 -- -- 33 Norte 0 895.2 -2.4 80
2019-10-23 01:00:00 8 -- -- 31 Norte 0.1 896.2 -1.1 80
2019-10-23 00:00:00 8.2 -- -- 18 Norte 0.2 897 -0.6 82
2019-10-22 23:00:00 9.3 -- -- 24 Norte 0 897.6 -0.9 65
2019-10-22 22:00:00 9.7 -- -- 25 Norte 0 897.3 -1.1 61
2019-10-22 21:00:00 9.8 -- -- 18 Norte 0 897.6 -0.9 62
2019-10-22 20:00:00 9.9 -- -- 13 Norte 0 898.5 -0.1 61
2019-10-22 19:00:00 10.4 -- -- 28 Norte 0 898.4 -0.3 55
2019-10-22 18:00:00 12.1 -- -- 31 Norte 0 898.5 -1.1 43
2019-10-22 17:00:00 13.4 -- -- 26 Norte 0 898.6 -1.9 38
2019-10-22 16:00:00 14.7 -- -- 25 Norte 0 898.7 -2.7 36
2019-10-22 15:00:00 13.8 -- -- 23 Norte 0 899.6 -2.2 39
2019-10-22 14:00:00 13.5 -- -- 23 Norte 0 900.5 -1.6 44
2019-10-22 13:00:00 12.3 -- -- 18 Norte 0 901.4 -0.9 47
2019-10-22 12:00:00 11.4 -- -- 15 Norte 0 901.8 -0.2 54
2019-10-22 11:00:00 9.5 -- -- 13 Norte 0 902.1 0.2 64
2019-10-22 10:00:00 6.9 -- -- 8 Norte 0 902.3 -0.1 90
2019-10-22 09:00:00 4.8 -- -- 7 Norte 0 902 -0.4 92
2019-10-22 08:00:00 6.2 -- -- 7 Norte 0 901.9 -0.1 91
2019-10-22 07:00:00 6.1 -- -- 5 Norte 0 902.4 0.2 93
2019-10-22 06:00:00 5.8 -- -- 10 Norte 0 902.4 -0.1 93
2019-10-22 05:00:00 5.1 -- -- 13 Norte 0 902 -0.9 93
2019-10-22 04:00:00 4.7 -- -- 15 Norte 0 902.2 -0.8 92
2019-10-22 03:00:00 5.2 -- -- 13 Norte 0 902.5 -0.6 89
2019-10-22 02:00:00 6.3 -- -- 11 Norte 0 902.9 0 83
2019-10-22 01:00:00 6.5 -- -- 10 Norte 0 903 0.5 82
2019-10-22 00:00:00 6.9 -- -- 9 Norte 0 903.1 0.8 82